Česky Dansk Deutsch English Español Suomi Français Magyar Italiano Nederlands norsk Polski Português svenska Türkçe

 

Het Weer

Vaerloese (Denemarken)

12:20, 18 mei 2004 (GMT)

NWNNE
WE
SWSSE
Home            
Vaerloese Koebenhavn / Roskilde Koebenhavn / Kastrup Ljungbyhed Ljungbyhed, Ljungbyhed, SWE-AFB Angelholm Malmo / Sturup Avno Danish Air Force Base Halmstad Swedish Air Force Base Kristianstad / Everod Anholt Island Automated Reporting Station Tirstrup Odense / Beldringe Maribo Lufthavn Sydfyns Flyveplads Roenne Hadsund Soenderborg Lufthavn Ronneby Vamdrup Vaxjo Vandel Billund Lufthavn

Om een weerknop op uw website of weblog te plaatsen, copieer onderstaande code en plak die in uw pagina. In het eerste vakje staat HTML-code, in het tweede vakje UBB-code.


Add to Google

Details

Wind speed:6 bf, 23 kn, 11.8 m/s, 26.5 miles/h, 42.6 km/h
Wind direction:W, 280°
Temperature:15°C, 59°F
Dew-point:4°C, 39°F
Atmospheric pressure:1018 hPa, 763.6 mmHg, 30.06 inHg, 1.005 atm
Relative humidity:47.7 %
METAR:EKVL 181220Z AUTO 28023KT P3000U 042 15/04 Q1018

Snelkoppelingen

Actuele weersinformatie van de hele wereld. Voeg locaties toe met het plus (+) symbool. Deze snelkoppelingen kunnen worden toegevoegd aan Google.

Lid van de Technetium groep

website free tracking
StatCounter NetStat W3C Validator

15-08-2022 07:53:43
astro.technetium.be money.technetium.be phote.technetium.be tafeltennistafel.technetium.be www.ligfiets.net